Time,TemperatureF,DewpointF,PressureIn,WindDirection,WindDirectionDegrees,WindSpeedMPH,WindSpeedGustMPH,Humidity,HourlyPrecipIn,Conditions,Clouds,dailyrainin,SoftwareType,DateUTC
2013-02-12 00:09:00,40.3,39.8,29.60,West,270,0.0,-999.0,98,-99.99,,,0.00,Acu-Link.com,2013-02-12 05:09:00,
2013-02-12 00:24:00,39.6,39.1,29.59,SW,225,0.0,-999.0,98,-99.99,,,0.00,Acu-Link.com,2013-02-12 05:24:00,
2013-02-12 00:40:00,39.2,38.7,29.61,WNW,292,1.7,-999.0,98,-99.99,,,0.00,Acu-Link.com,2013-02-12 05:40:00,
2013-02-12 00:55:00,38.5,38.0,29.60,West,270,0.0,-999.0,98,-99.99,,,0.00,Acu-Link.com,2013-02-12 05:55:00,
2013-02-12 01:10:00,37.9,37.4,29.60,West,270,0.0,-999.0,98,-99.99,,,0.00,Acu-Link.com,2013-02-12 06:10:00,
2013-02-12 01:25:00,37.2,36.7,29.61,SSW,202,0.0,-999.0,98,-99.99,,,0.00,Acu-Link.com,2013-02-12 06:25:00,
2013-02-12 01:41:00,36.7,36.2,29.61,NNW,337,1.1,-999.0,98,-99.99,,,0.00,Acu-Link.com,2013-02-12 06:41:00,
2013-02-12 01:56:00,36.1,35.6,29.62,West,270,2.2,-999.0,98,-99.99,,,0.00,Acu-Link.com,2013-02-12 06:56:00,
2013-02-12 02:11:00,36.7,36.2,29.62,West,270,2.2,-999.0,98,-99.99,,,0.00,Acu-Link.com,2013-02-12 07:11:00,
2013-02-12 02:26:00,37.9,37.4,29.62,NW,315,3.2,-999.0,98,-99.99,,,0.00,Acu-Link.com,2013-02-12 07:26:00,
2013-02-12 02:42:00,37.6,37.1,29.63,West,270,1.7,-999.0,98,-99.99,,,0.00,Acu-Link.com,2013-02-12 07:42:00,
2013-02-12 03:03:00,37.2,36.7,29.62,WSW,247,5.3,-999.0,98,-99.99,,,0.00,Acu-Link.com,2013-02-12 08:03:00,
2013-02-12 03:22:00,37.2,36.7,29.62,NNW,337,3.2,-999.0,98,-99.99,,,0.00,Acu-Link.com,2013-02-12 08:22:00,
2013-02-12 03:37:00,36.9,36.4,29.63,West,270,4.7,-999.0,98,-99.99,,,0.00,Acu-Link.com,2013-02-12 08:37:00,
2013-02-12 03:53:00,36.7,36.2,29.63,WNW,292,2.7,-999.0,98,-99.99,,,0.00,Acu-Link.com,2013-02-12 08:53:00,
2013-02-12 04:19:00,37.4,36.9,29.65,NW,315,3.2,-999.0,98,-99.99,,,0.00,Acu-Link.com,2013-02-12 09:19:00,
2013-02-12 04:34:00,37.8,35.4,29.64,WNW,292,7.3,-999.0,91,-99.99,,,0.00,Acu-Link.com,2013-02-12 09:34:00,
2013-02-12 04:49:00,39.4,34.4,29.66,NW,315,4.7,-999.0,82,-99.99,,,0.00,Acu-Link.com,2013-02-12 09:49:00,
2013-02-12 05:04:00,40.1,33.2,29.65,North,0,7.8,-999.0,76,-99.99,,,0.00,Acu-Link.com,2013-02-12 10:04:00,
2013-02-12 05:19:00,40.3,32.7,29.65,NNW,337,6.3,-999.0,74,-99.99,,,0.00,Acu-Link.com,2013-02-12 10:19:00,
2013-02-12 05:34:00,39.7,32.1,29.65,NNE,22,5.3,-999.0,74,-99.99,,,0.00,Acu-Link.com,2013-02-12 10:34:00,
2013-02-12 05:49:00,39.9,31.3,29.67,West,270,9.4,-999.0,71,-99.99,,,0.00,Acu-Link.com,2013-02-12 10:49:00,
2013-02-12 06:05:00,39.9,30.2,29.69,ESE,112,5.3,-999.0,68,-99.99,,,0.00,Acu-Link.com,2013-02-12 11:05:00,
2013-02-12 06:20:00,40.1,30.0,29.69,WNW,292,7.3,-999.0,67,-99.99,,,0.00,Acu-Link.com,2013-02-12 11:20:00,
2013-02-12 06:36:00,39.7,29.7,29.69,WNW,292,2.7,-999.0,67,-99.99,,,0.00,Acu-Link.com,2013-02-12 11:36:00,
2013-02-12 06:51:00,39.7,28.9,29.69,West,270,6.3,-999.0,65,-99.99,,,0.00,Acu-Link.com,2013-02-12 11:51:00,
2013-02-12 07:06:00,39.6,28.4,29.70,North,0,6.8,-999.0,64,-99.99,,,0.00,Acu-Link.com,2013-02-12 12:06:00,
2013-02-12 07:21:00,39.7,28.5,29.71,West,270,5.8,-999.0,64,-99.99,,,0.00,Acu-Link.com,2013-02-12 12:21:00,
2013-02-12 07:36:00,39.9,28.7,29.71,SW,225,3.2,-999.0,64,-99.99,,,0.00,Acu-Link.com,2013-02-12 12:36:00,
2013-02-12 07:51:00,40.1,28.9,29.72,WNW,292,0.0,-999.0,64,-99.99,,,0.00,Acu-Link.com,2013-02-12 12:51:00,
2013-02-12 08:07:00,40.1,28.9,29.73,NNW,337,6.3,-999.0,64,-99.99,,,0.00,Acu-Link.com,2013-02-12 13:07:00,
2013-02-12 08:22:00,40.3,28.7,29.73,WNW,292,8.3,-999.0,63,-99.99,,,0.00,Acu-Link.com,2013-02-12 13:22:00,
2013-02-12 08:37:00,40.5,28.9,29.74,West,270,9.4,-999.0,63,-99.99,,,0.00,Acu-Link.com,2013-02-12 13:37:00,
2013-02-12 08:52:00,41.5,28.3,29.74,WNW,292,5.8,-999.0,59,-99.99,,,0.00,Acu-Link.com,2013-02-12 13:52:00,
2013-02-12 09:07:00,43.3,28.7,29.74,West,270,15.5,-999.0,56,-99.99,,,0.00,Acu-Link.com,2013-02-12 14:07:00,
2013-02-12 09:22:00,43.2,28.6,29.74,West,270,7.8,-999.0,56,-99.99,,,0.00,Acu-Link.com,2013-02-12 14:22:00,
2013-02-12 09:38:00,43.2,28.1,29.74,West,270,5.8,-999.0,55,-99.99,,,0.00,Acu-Link.com,2013-02-12 14:38:00,
2013-02-12 09:53:00,43.7,28.6,29.75,WNW,292,13.5,-999.0,55,-99.99,,,0.00,Acu-Link.com,2013-02-12 14:53:00,
2013-02-12 10:08:00,43.9,27.9,29.75,West,270,6.3,-999.0,53,-99.99,,,0.00,Acu-Link.com,2013-02-12 15:08:00,
2013-02-12 10:23:00,43.7,28.2,29.75,North,0,7.8,-999.0,54,-99.99,,,0.00,Acu-Link.com,2013-02-12 15:23:00,
2013-02-12 10:38:00,44.1,27.6,29.76,WNW,292,8.9,-999.0,52,-99.99,,,0.00,Acu-Link.com,2013-02-12 15:38:00,
2013-02-12 10:54:00,44.6,28.5,29.76,NW,315,5.3,-999.0,53,-99.99,,,0.00,Acu-Link.com,2013-02-12 15:54:00,
2013-02-12 11:09:00,44.4,27.9,29.77,West,270,8.3,-999.0,52,-99.99,,,0.00,Acu-Link.com,2013-02-12 16:09:00,
2013-02-12 11:24:00,45.7,28.6,29.77,WNW,292,8.3,-999.0,51,-99.99,,,0.00,Acu-Link.com,2013-02-12 16:24:00,
2013-02-12 11:39:00,45.9,28.8,29.78,NE,45,18.1,-999.0,51,-99.99,,,0.00,Acu-Link.com,2013-02-12 16:39:00,
2013-02-12 11:55:00,44.4,27.4,29.78,NNW,337,11.4,-999.0,51,-99.99,,,0.00,Acu-Link.com,2013-02-12 16:55:00,
2013-02-12 12:10:00,45.9,28.8,29.78,NW,315,9.4,-999.0,51,-99.99,,,0.00,Acu-Link.com,2013-02-12 17:10:00,
2013-02-12 12:25:00,46.4,28.8,29.78,West,270,6.3,-999.0,50,-99.99,,,0.00,Acu-Link.com,2013-02-12 17:25:00,
2013-02-12 12:40:00,46.6,29.0,29.77,NNW,337,8.9,-999.0,50,-99.99,,,0.00,Acu-Link.com,2013-02-12 17:40:00,
2013-02-12 12:56:00,46.8,29.2,29.77,WNW,292,14.5,-999.0,50,-99.99,,,0.00,Acu-Link.com,2013-02-12 17:56:00,
2013-02-12 13:11:00,47.1,29.4,29.77,WNW,292,6.3,-999.0,50,-99.99,,,0.00,Acu-Link.com,2013-02-12 18:11:00,
2013-02-12 13:26:00,46.4,28.3,29.77,WNW,292,12.5,-999.0,49,-99.99,,,0.00,Acu-Link.com,2013-02-12 18:26:00,
2013-02-12 13:41:00,46.8,29.2,29.76,WNW,292,7.3,-999.0,50,-99.99,,,0.00,Acu-Link.com,2013-02-12 18:41:00,
2013-02-12 13:56:00,46.9,29.2,29.76,NNE,22,8.9,-999.0,50,-99.99,,,0.00,Acu-Link.com,2013-02-12 18:56:00,
2013-02-12 14:11:00,47.5,29.3,29.77,WNW,292,4.7,-999.0,49,-99.99,,,0.00,Acu-Link.com,2013-02-12 19:11:00,
2013-02-12 14:27:00,46.9,28.8,29.75,West,270,5.8,-999.0,49,-99.99,,,0.00,Acu-Link.com,2013-02-12 19:27:00,
2013-02-12 14:42:00,46.8,29.2,29.75,NNE,22,5.3,-999.0,50,-99.99,,,0.00,Acu-Link.com,2013-02-12 19:42:00,
2013-02-12 14:58:00,46.0,28.4,29.76,NNE,22,6.8,-999.0,50,-99.99,,,0.00,Acu-Link.com,2013-02-12 19:58:00,
2013-02-12 15:13:00,46.0,28.9,29.74,West,270,6.3,-999.0,51,-99.99,,,0.00,Acu-Link.com,2013-02-12 20:13:00,
2013-02-12 15:28:00,44.8,27.8,29.75,WSW,247,9.4,-999.0,51,-99.99,,,0.00,Acu-Link.com,2013-02-12 20:28:00,
2013-02-12 15:43:00,45.3,28.7,29.74,West,270,4.7,-999.0,52,-99.99,,,0.00,Acu-Link.com,2013-02-12 20:43:00,
2013-02-12 15:58:00,44.4,27.4,29.70,NW,315,4.7,-999.0,51,-99.99,,,0.00,Acu-Link.com,2013-02-12 20:58:00,
2013-02-12 16:14:00,43.2,27.7,29.70,NE,45,7.8,-999.0,54,-99.99,,,0.00,Acu-Link.com,2013-02-12 21:14:00,
2013-02-12 16:29:00,42.6,27.1,29.72,WNW,292,6.8,-999.0,54,-99.99,,,0.00,Acu-Link.com,2013-02-12 21:29:00,
2013-02-12 16:44:00,42.3,27.3,29.75,WNW,292,9.9,-999.0,55,-99.99,,,0.00,Acu-Link.com,2013-02-12 21:44:00,
2013-02-12 17:00:00,41.5,27.0,29.75,West,270,5.8,-999.0,56,-99.99,,,0.00,Acu-Link.com,2013-02-12 22:00:00,
2013-02-12 17:15:00,41.0,26.9,29.79,West,270,5.8,-999.0,57,-99.99,,,0.00,Acu-Link.com,2013-02-12 22:15:00,
2013-02-12 17:30:00,40.3,27.1,29.80,NNW,337,5.8,-999.0,59,-99.99,,,0.00,Acu-Link.com,2013-02-12 22:30:00,
2013-02-12 17:45:00,40.1,26.9,29.83,WNW,292,3.2,-999.0,59,-99.99,,,0.00,Acu-Link.com,2013-02-12 22:45:00,
2013-02-12 18:00:00,39.7,26.6,29.82,WNW,292,7.8,-999.0,59,-99.99,,,0.00,Acu-Link.com,2013-02-12 23:00:00,
2013-02-12 18:16:00,39.4,26.7,29.82,West,270,4.7,-999.0,60,-99.99,,,0.00,Acu-Link.com,2013-02-12 23:16:00,
2013-02-12 18:31:00,39.2,26.9,29.81,NNE,22,1.7,-999.0,61,-99.99,,,0.00,Acu-Link.com,2013-02-12 23:31:00,
2013-02-12 18:46:00,38.3,26.4,29.82,WNW,292,2.7,-999.0,62,-99.99,,,0.00,Acu-Link.com,2013-02-12 23:46:00,
2013-02-12 19:02:00,37.6,26.5,29.83,NW,315,2.2,-999.0,64,-99.99,,,0.00,Acu-Link.com,2013-02-13 00:02:00,
2013-02-12 19:17:00,37.0,26.3,29.82,WNW,292,2.2,-999.0,65,-99.99,,,0.00,Acu-Link.com,2013-02-13 00:17:00,
2013-02-12 19:32:00,36.7,26.4,29.82,West,270,1.7,-999.0,66,-99.99,,,0.00,Acu-Link.com,2013-02-13 00:32:00,
2013-02-12 19:48:00,35.6,25.7,29.82,WSW,247,0.0,-999.0,67,-99.99,,,0.00,Acu-Link.com,2013-02-13 00:48:00,
2013-02-12 20:03:00,35.2,26.1,29.82,West,270,0.0,-999.0,69,-99.99,,,0.00,Acu-Link.com,2013-02-13 01:03:00,
2013-02-12 20:18:00,34.9,27.5,29.80,NNW,337,5.3,-999.0,74,-99.99,,,0.00,Acu-Link.com,2013-02-13 01:18:00,
2013-02-12 20:33:00,34.9,27.1,29.79,West,270,2.7,-999.0,73,-99.99,,,0.00,Acu-Link.com,2013-02-13 01:33:00,
2013-02-12 20:49:00,33.8,27.4,29.79,WNW,292,0.0,-999.0,77,-99.99,,,0.00,Acu-Link.com,2013-02-13 01:49:00,
2013-02-12 21:04:00,33.3,27.2,29.78,WNW,292,1.7,-999.0,78,-99.99,,,0.00,Acu-Link.com,2013-02-13 02:04:00,
2013-02-12 21:19:00,33.8,27.1,29.78,WNW,292,1.7,-999.0,76,-99.99,,,0.00,Acu-Link.com,2013-02-13 02:19:00,
2013-02-12 21:35:00,33.1,27.3,29.77,ESE,112,0.0,-999.0,79,-99.99,,,0.00,Acu-Link.com,2013-02-13 02:35:00,
2013-02-12 21:50:00,31.6,27.6,29.77,NNW,337,0.0,-999.0,85,-99.99,,,0.00,Acu-Link.com,2013-02-13 02:50:00,
2013-02-12 22:05:00,30.7,27.6,29.77,WNW,292,0.0,-999.0,88,-99.99,,,0.00,Acu-Link.com,2013-02-13 03:05:00,
2013-02-12 22:21:00,30.4,27.6,29.78,West,270,0.0,-999.0,89,-99.99,,,0.00,Acu-Link.com,2013-02-13 03:21:00,
2013-02-12 22:36:00,30.4,29.4,29.78,WSW,247,0.0,-999.0,96,-99.99,,,0.00,Acu-Link.com,2013-02-13 03:36:00,
2013-02-12 22:51:00,29.8,28.0,29.79,WSW,247,0.0,-999.0,93,-99.99,,,0.00,Acu-Link.com,2013-02-13 03:51:00,
2013-02-12 23:06:00,29.8,28.5,29.79,WSW,247,0.0,-999.0,95,-99.99,,,0.00,Acu-Link.com,2013-02-13 04:06:00,
2013-02-12 23:22:00,30.0,28.5,29.79,West,270,2.2,-999.0,94,-99.99,,,0.00,Acu-Link.com,2013-02-13 04:22:00,
2013-02-12 23:37:00,30.0,28.2,29.80,WNW,292,1.7,-999.0,93,-99.99,,,0.00,Acu-Link.com,2013-02-13 04:37:00,
2013-02-12 23:53:00,30.6,28.3,29.81,NW,315,2.2,-999.0,91,-99.99,,,0.00,Acu-Link.com,2013-02-13 04:53:00,